Time;durP1;ratioP1;P1;durP2;ratioP2;P2;SDS_P1;SDS_P2;PMS_P1;PMS_P2;Temp;Humidity;BMP_temperature;BMP_pressure;BME280_temperature;BME280_humidity;BME280_pressure;Samples;Min_cycle;Max_cycle;Signal;HPM_P1;HPM_P2
2023/01/26 00:00:53;;;;;;;72.15;23.13;;;0.40;99.90;;;;;;5013867;28;20264;-70
2023/01/26 00:03:20;;;;;;;89.10;26.35;;;0.40;99.90;;;;;;5046752;28;20045;-70
2023/01/26 00:05:46;;;;;;;93.53;24.92;;;0.50;99.90;;;;;;5030056;28;20054;-70
2023/01/26 00:08:12;;;;;;;91.72;26.98;;;0.40;99.90;;;;;;5031518;28;20501;-70
2023/01/26 00:10:40;;;;;;;63.83;19.55;;;0.50;99.90;;;;;;5013890;28;20378;-71
2023/01/26 00:13:07;;;;;;;95.68;28.70;;;0.50;99.90;;;;;;5046456;28;20042;-70
2023/01/26 00:15:34;;;;;;;94.40;29.02;;;0.50;99.90;;;;;;5013633;28;20045;-70
2023/01/26 00:18:00;;;;;;;92.63;26.40;;;0.50;99.90;;;;;;5030865;28;20041;-70
2023/01/26 00:20:27;;;;;;;80.93;24.42;;;0.50;99.90;;;;;;5013581;28;20049;-70
2023/01/26 00:22:53;;;;;;;100.47;27.73;;;0.50;99.90;;;;;;5030283;28;20037;-70
2023/01/26 00:25:19;;;;;;;95.05;27.80;;;0.50;99.90;;;;;;5030814;28;20504;-70
2023/01/26 00:27:44;;;;;;;96.13;27.90;;;0.50;99.90;;;;;;5031095;28;20124;-70
2023/01/26 00:30:11;;;;;;;117.75;30.30;;;0.50;99.90;;;;;;5031216;28;20048;-70
2023/01/26 00:32:37;;;;;;;93.78;28.58;;;0.50;99.90;;;;;;5013011;28;20425;-70
2023/01/26 00:35:04;;;;;;;89.35;26.55;;;0.50;99.90;;;;;;5030962;28;20038;-70
2023/01/26 00:37:30;;;;;;;98.35;29.42;;;0.50;99.90;;;;;;5047958;28;20037;-70
2023/01/26 00:39:56;;;;;;;113.07;31.73;;;0.60;99.90;;;;;;5050164;28;20051;-70
2023/01/26 00:42:27;;;;;;;107.95;28.83;;;0.50;99.90;;;;;;5048380;28;20041;-70
2023/01/26 00:44:52;;;;;;;109.57;30.05;;;0.60;99.90;;;;;;5042543;28;20048;-70
2023/01/26 00:47:18;;;;;;;104.00;31.42;;;0.60;99.90;;;;;;5032522;28;20041;-70
2023/01/26 00:49:44;;;;;;;111.85;29.95;;;0.60;99.90;;;;;;5049370;28;20428;-70
2023/01/26 00:52:11;;;;;;;88.72;29.13;;;0.60;99.90;;;;;;5049561;28;20132;-70
2023/01/26 00:54:38;;;;;;;101.03;28.77;;;0.60;99.90;;;;;;5049938;28;20043;-70
2023/01/26 00:57:03;;;;;;;99.45;28.42;;;0.60;99.90;;;;;;5049519;28;20354;-70
2023/01/26 00:59:31;;;;;;;100.30;31.15;;;0.60;99.90;;;;;;5048957;28;20102;-71
2023/01/26 01:01:58;;;;;;;103.70;29.42;;;0.60;99.90;;;;;;5040902;28;20116;-71
2023/01/26 01:04:24;;;;;;;139.68;33.45;;;0.60;99.90;;;;;;5028654;28;20079;-71
2023/01/26 01:06:50;;;;;;;117.28;31.83;;;0.60;99.90;;;;;;5045218;28;20077;-70
2023/01/26 01:09:16;;;;;;;121.78;31.20;;;0.60;99.90;;;;;;5032412;28;20374;-70
2023/01/26 01:11:42;;;;;;;126.50;32.22;;;0.70;99.90;;;;;;5016312;28;20063;-70
2023/01/26 01:14:09;;;;;;;90.00;28.60;;;0.70;99.90;;;;;;5032035;28;20120;-70
2023/01/26 01:16:34;;;;;;;122.28;31.63;;;0.70;99.90;;;;;;5032230;28;20072;-71
2023/01/26 01:19:00;;;;;;;103.70;29.25;;;0.70;99.90;;;;;;5016081;28;20085;-71
2023/01/26 01:21:26;;;;;;;102.60;29.98;;;0.70;99.90;;;;;;5031906;28;20687;-71
2023/01/26 01:23:52;;;;;;;106.47;29.63;;;0.70;99.90;;;;;;5050394;28;20071;-70
2023/01/26 01:26:18;;;;;;;104.40;29.80;;;0.70;99.90;;;;;;5032715;28;20045;-71
2023/01/26 01:28:44;;;;;;;99.53;29.42;;;0.70;99.90;;;;;;5049631;28;20053;-71
2023/01/26 01:31:13;;;;;;;105.57;31.25;;;0.70;99.90;;;;;;5032244;28;20037;-71
2023/01/26 01:33:39;;;;;;;98.38;29.67;;;0.70;99.90;;;;;;5015961;28;20044;-71
2023/01/26 01:36:09;;;;;;;116.68;31.60;;;0.70;99.90;;;;;;5031805;28;20037;-71
2023/01/26 01:38:35;;;;;;;;;;;0.70;99.90;;;;;;5032815;28;20137;-71
2023/01/26 01:41:01;;;;;;;87.07;27.52;;;0.70;99.90;;;;;;5050252;28;20019;-71
2023/01/26 01:43:27;;;;;;;111.18;30.88;;;0.70;99.90;;;;;;5049456;28;20041;-71
2023/01/26 01:45:54;;;;;;;94.78;29.02;;;0.70;99.90;;;;;;5050125;28;20132;-71
2023/01/26 01:48:23;;;;;;;84.45;26.15;;;0.70;99.90;;;;;;5050214;28;20041;-71
2023/01/26 01:50:53;;;;;;;106.43;26.27;;;0.70;99.90;;;;;;5031997;28;20332;-71
2023/01/26 01:53:26;;;;;;;;;;;0.70;99.90;;;;;;5050561;28;20782;-71
2023/01/26 01:55:55;;;;;;;100.75;28.02;;;0.70;99.90;;;;;;5031636;28;19918;-71
2023/01/26 01:58:21;;;;;;;110.43;27.98;;;0.70;99.90;;;;;;5050000;28;20048;-71
2023/01/26 02:00:47;;;;;;;95.60;28.35;;;0.80;99.90;;;;;;5049943;28;20087;-71
2023/01/26 02:03:14;;;;;;;98.65;29.15;;;0.80;99.90;;;;;;5015130;28;20080;-71
2023/01/26 02:05:44;;;;;;;120.47;31.90;;;0.80;99.90;;;;;;5031824;28;20057;-71
2023/01/26 02:08:13;;;;;;;84.97;28.23;;;0.80;99.90;;;;;;5049843;28;20493;-71
2023/01/26 02:10:41;;;;;;;112.95;30.40;;;0.80;99.90;;;;;;5031299;28;20076;-71
2023/01/26 02:13:07;;;;;;;104.53;30.30;;;0.80;99.90;;;;;;5032248;28;20116;-71
2023/01/26 02:15:33;;;;;;;111.40;30.35;;;0.80;99.90;;;;;;5032142;28;20029;-71
2023/01/26 02:18:02;;;;;;;93.55;28.98;;;0.80;99.90;;;;;;5031084;28;20051;-71
2023/01/26 02:20:32;;;;;;;114.03;31.00;;;0.80;99.90;;;;;;5031885;28;20049;-71
2023/01/26 02:23:13;;;;;;;91.80;25.13;;;0.80;99.90;;;;;;5031849;28;20045;-71
2023/01/26 02:25:53;;;;;;;104.85;30.00;;;0.80;99.90;;;;;;5049463;28;20098;-71
2023/01/26 02:28:25;;;;;;;89.22;28.20;;;0.80;99.90;;;;;;5034032;28;20095;-71
2023/01/26 02:30:53;;;;;;;89.25;25.58;;;0.80;99.90;;;;;;5034917;28;20039;-71
2023/01/26 02:33:21;;;;;;;107.70;29.98;;;0.80;99.90;;;;;;5019057;28;20355;-72
2023/01/26 02:35:48;;;;;;;110.00;30.02;;;0.80;99.90;;;;;;5018995;28;20044;-71
2023/01/26 02:38:14;;;;;;;122.90;32.25;;;0.80;99.90;;;;;;5052821;28;20045;-71
2023/01/26 02:41:03;;;;;;;87.82;27.42;;;0.80;99.90;;;;;;5053280;28;20065;-71
2023/01/26 02:43:30;;;;;;;100.65;30.65;;;0.90;99.90;;;;;;5053149;28;20036;-72
2023/01/26 02:45:55;;;;;;;105.72;28.95;;;0.90;99.90;;;;;;5052426;28;20045;-71
2023/01/26 02:51:06;;;;;;;85.15;26.95;;;0.90;99.90;;;;;;5034991;28;20045;-71
2023/01/26 02:53:32;;;;;;;153.88;36.78;;;0.90;99.90;;;;;;5052567;28;20044;-71
2023/01/26 02:55:58;;;;;;;112.53;31.45;;;0.90;99.90;;;;;;5053000;28;20436;-71
2023/01/26 02:58:24;;;;;;;119.05;30.98;;;0.90;99.90;;;;;;5035154;28;20070;-71
2023/01/26 03:00:49;;;;;;;88.65;26.17;;;0.90;99.90;;;;;;5052077;28;20400;-71
2023/01/26 03:03:23;;;;;;;111.97;29.67;;;0.90;99.90;;;;;;5052709;28;20052;-71
2023/01/26 03:05:49;;;;;;;102.20;29.85;;;0.90;99.90;;;;;;5018319;28;20375;-72
2023/01/26 03:08:16;;;;;;;104.03;29.92;;;0.90;99.90;;;;;;5052635;28;20045;-71
2023/01/26 03:10:42;;;;;;;79.70;26.10;;;0.90;99.90;;;;;;5034723;28;20041;-72
2023/01/26 03:13:08;;;;;;;100.20;28.95;;;0.90;99.90;;;;;;5034112;28;20048;-72
2023/01/26 03:15:41;;;;;;;119.63;30.83;;;0.90;99.90;;;;;;5052537;28;20032;-72
2023/01/26 03:29:07;;;;;;;133.77;33.58;;;1.00;99.90;;;;;;5033752;28;20052;-72
2023/01/26 03:31:33;;;;;;;110.60;30.80;;;1.00;99.90;;;;;;5034388;28;20068;-72
2023/01/26 03:33:59;;;;;;;101.18;30.67;;;1.00;99.90;;;;;;5051612;28;20025;-72
2023/01/26 03:36:25;;;;;;;96.88;28.38;;;1.10;99.90;;;;;;5034262;28;20378;-72
2023/01/26 03:38:50;;;;;;;124.57;33.47;;;1.10;99.90;;;;;;5017732;28;20183;-72
2023/01/26 03:57:41;;;;;;;100.72;29.33;;;1.10;99.90;;;;;;5034205;28;20508;-71
2023/01/26 04:00:09;;;;;;;119.22;30.88;;;1.10;99.90;;;;;;5051806;28;20080;-71
2023/01/26 04:08:23;;;;;;;168.60;36.80;;;1.20;99.90;;;;;;5051744;28;20055;-71
2023/01/26 04:10:52;;;;;;;139.43;33.50;;;1.20;99.90;;;;;;5016426;28;20172;-71
2023/01/26 04:21:34;;;;;;;116.05;28.42;;;1.30;99.90;;;;;;5033382;28;20600;-71
2023/01/26 04:24:08;;;;;;;104.10;28.95;;;1.30;99.90;;;;;;5032830;28;20049;-71
2023/01/26 04:26:35;;;;;;;137.00;34.17;;;1.30;99.90;;;;;;5033718;28;20040;-71
2023/01/26 04:29:06;;;;;;;78.82;26.98;;;1.30;99.90;;;;;;5051040;28;20572;-71
2023/01/26 04:31:32;;;;;;;150.93;36.30;;;1.40;99.90;;;;;;5032670;28;20072;-71
2023/01/26 04:33:59;;;;;;;105.25;31.30;;;1.30;99.90;;;;;;5051134;28;20044;-71
2023/01/26 04:36:26;;;;;;;131.65;31.67;;;1.30;99.90;;;;;;5033296;28;20041;-71
2023/01/26 04:38:52;;;;;;;130.00;32.38;;;1.30;99.90;;;;;;5016051;28;20702;-71
2023/01/26 04:41:17;;;;;;;178.98;38.25;;;1.40;99.90;;;;;;5050935;28;20041;-71
2023/01/26 04:43:43;;;;;;;181.38;39.47;;;1.40;99.90;;;;;;5051062;28;20099;-71
2023/01/26 04:46:09;;;;;;;95.05;28.52;;;1.40;99.90;;;;;;5032627;28;20125;-71
2023/01/26 04:48:36;;;;;;;154.48;36.72;;;1.40;99.90;;;;;;5033067;28;20497;-71
2023/01/26 04:51:13;;;;;;;100.10;28.80;;;1.40;99.90;;;;;;5032070;28;20052;-71
2023/01/26 04:53:40;;;;;;;117.95;30.85;;;1.40;99.90;;;;;;5032878;28;20032;-71
2023/01/26 04:56:08;;;;;;;171.98;32.92;;;1.40;99.90;;;;;;5050719;28;20500;-71
2023/01/26 04:58:34;;;;;;;103.85;29.67;;;1.40;99.90;;;;;;5032288;28;20535;-71
2023/01/26 05:01:00;;;;;;;95.78;29.33;;;1.40;99.90;;;;;;5032797;28;20087;-71
2023/01/26 05:03:25;;;;;;;130.90;33.00;;;1.50;99.90;;;;;;5050608;28;20158;-71
2023/01/26 05:05:53;;;;;;;183.05;39.05;;;1.40;99.90;;;;;;5031758;28;20063;-71
2023/01/26 05:08:21;;;;;;;141.23;35.15;;;1.50;99.90;;;;;;5050574;28;20053;-71
2023/01/26 05:10:47;;;;;;;108.63;29.88;;;1.50;99.90;;;;;;5032627;28;20069;-71
2023/01/26 05:13:13;;;;;;;172.10;36.05;;;1.50;99.90;;;;;;5032333;28;20365;-71
2023/01/26 05:15:39;;;;;;;98.15;28.90;;;1.50;99.90;;;;;;5050480;28;20092;-71
2023/01/26 05:18:05;;;;;;;131.63;33.60;;;1.50;99.90;;;;;;5050523;28;20439;-71
2023/01/26 05:20:32;;;;;;;81.72;26.48;;;1.50;99.90;;;;;;5049829;28;20045;-71
2023/01/26 05:22:58;;;;;;;97.25;29.67;;;1.50;99.90;;;;;;5050516;28;20036;-71
2023/01/26 05:25:24;;;;;;;163.55;37.60;;;1.50;99.90;;;;;;5050262;28;20045;-71
2023/01/26 05:27:51;;;;;;;115.85;33.95;;;1.50;99.90;;;;;;5049766;28;20099;-71
2023/01/26 05:30:17;;;;;;;207.48;41.80;;;1.50;99.90;;;;;;5050506;28;20029;-71
2023/01/26 05:32:43;;;;;;;89.47;28.95;;;1.50;99.90;;;;;;5032466;28;20406;-71
2023/01/26 05:35:09;;;;;;;188.40;41.42;;;1.50;99.90;;;;;;5049846;28;20048;-71
2023/01/26 05:37:35;;;;;;;97.55;31.10;;;1.50;99.90;;;;;;5032393;28;20107;-71
2023/01/26 05:40:01;;;;;;;93.55;28.75;;;1.50;99.90;;;;;;5049648;28;20033;-71
2023/01/26 05:42:28;;;;;;;125.50;33.63;;;1.50;99.90;;;;;;5032322;28;20489;-71
2023/01/26 05:44:53;;;;;;;103.07;31.60;;;1.60;99.90;;;;;;5015769;28;20044;-71
2023/01/26 05:47:19;;;;;;;108.35;32.58;;;1.60;99.90;;;;;;5049196;28;20124;-72
2023/01/26 05:49:45;;;;;;;99.68;29.80;;;1.60;99.90;;;;;;5032529;28;20068;-71
2023/01/26 05:52:14;;;;;;;254.32;44.42;;;1.60;99.90;;;;;;5050135;28;20486;-72
2023/01/26 05:54:40;;;;;;;227.93;45.45;;;1.60;99.90;;;;;;5049682;28;20064;-71
2023/01/26 05:57:06;;;;;;;167.35;37.08;;;1.60;99.90;;;;;;5032564;28;20095;-72
2023/01/26 05:59:32;;;;;;;334.25;52.70;;;1.50;99.90;;;;;;5032139;28;20044;-72
2023/01/26 06:01:58;;;;;;;206.05;38.88;;;1.60;99.90;;;;;;5015179;28;20151;-72
2023/01/26 06:04:24;;;;;;;265.25;45.38;;;1.50;99.90;;;;;;5035923;28;20049;-72
2023/01/26 06:06:54;;;;;;;187.57;37.28;;;1.50;99.90;;;;;;5053979;28;20041;-70
2023/01/26 06:09:20;;;;;;;152.82;37.58;;;1.50;99.90;;;;;;5035519;28;20399;-71
2023/01/26 06:11:46;;;;;;;241.48;45.63;;;1.50;99.90;;;;;;5053846;28;20051;-71
2023/01/26 06:14:12;;;;;;;238.90;49.70;;;1.50;99.90;;;;;;5036033;28;20107;-71
2023/01/26 06:16:38;;;;;;;190.10;45.03;;;1.50;99.90;;;;;;5035209;28;20558;-71
2023/01/26 06:19:04;;;;;;;285.67;49.42;;;1.50;99.90;;;;;;5035962;28;20045;-71
2023/01/26 06:21:31;;;;;;;353.52;51.33;;;1.50;99.90;;;;;;5053585;28;20477;-71
2023/01/26 06:23:57;;;;;;;485.17;60.88;;;1.50;99.90;;;;;;5053103;28;20041;-72
2023/01/26 06:26:25;;;;;;;395.10;54.40;;;1.50;99.90;;;;;;5035908;28;20043;-72
2023/01/26 06:28:52;;;;;;;382.42;53.42;;;1.60;99.90;;;;;;5052813;28;20572;-74
2023/01/26 06:31:18;;;;;;;414.98;54.85;;;1.60;99.90;;;;;;5053365;28;20072;-72
2023/01/26 06:33:44;;;;;;;529.65;69.40;;;1.60;99.90;;;;;;5053690;28;20559;-72
2023/01/26 06:36:12;;;;;;;362.90;53.08;;;1.60;99.90;;;;;;5052932;28;20127;-72
2023/01/26 06:38:38;;;;;;;297.30;44.10;;;1.60;99.90;;;;;;5018971;28;20048;-72
2023/01/26 06:41:06;;;;;;;187.43;37.72;;;1.70;99.90;;;;;;5053182;28;20073;-72
2023/01/26 06:43:33;;;;;;;239.77;41.20;;;1.70;99.90;;;;;;5034777;28;20037;-72
2023/01/26 06:46:00;;;;;;;343.00;48.10;;;1.80;99.90;;;;;;5053309;28;20116;-72
2023/01/26 06:48:27;;;;;;;177.43;36.58;;;1.90;99.90;;;;;;5035165;28;20041;-72
2023/01/26 06:50:56;;;;;;;194.10;37.33;;;1.90;99.90;;;;;;5034751;28;20025;-72
2023/01/26 06:53:35;;;;;;;116.30;30.73;;;2.00;99.90;;;;;;5053350;28;20455;-72
2023/01/26 06:56:01;;;;;;;131.88;28.92;;;2.10;99.90;;;;;;5052918;28;20071;-72
2023/01/26 06:58:27;;;;;;;178.93;33.13;;;2.10;99.90;;;;;;5052522;28;20505;-72
2023/01/26 07:00:54;;;;;;;156.70;30.95;;;2.10;99.90;;;;;;5052781;28;20083;-73
2023/01/26 07:03:20;;;;;;;197.50;34.88;;;2.20;99.90;;;;;;5034859;28;20049;-73
2023/01/26 07:05:46;;;;;;;160.02;34.13;;;2.30;99.90;;;;;;5052090;28;20057;-72
2023/01/26 07:08:12;;;;;;;152.63;31.67;;;2.30;99.90;;;;;;5034907;28;20068;-72
2023/01/26 07:10:38;;;;;;;127.20;28.63;;;2.30;99.90;;;;;;5034786;28;20373;-72
2023/01/26 07:13:04;;;;;;;164.38;32.85;;;2.40;99.90;;;;;;5034121;28;20033;-72
2023/01/26 07:15:30;;;;;;;94.55;24.48;;;2.40;99.90;;;;;;5052749;28;20037;-73
2023/01/26 07:17:57;;;;;;;100.90;25.10;;;2.40;99.90;;;;;;5052146;28;20037;-72
2023/01/26 07:20:23;;;;;;;140.13;28.38;;;2.40;99.90;;;;;;5052476;28;20243;-73
2023/01/26 07:22:50;;;;;;;96.85;24.60;;;2.50;99.90;;;;;;5052338;28;20078;-73
2023/01/26 07:25:16;;;;;;;128.50;26.88;;;2.50;99.90;;;;;;5017403;28;20497;-73
2023/01/26 07:27:42;;;;;;;133.38;29.45;;;2.50;99.90;;;;;;5034673;28;20432;-73
2023/01/26 07:30:09;;;;;;;125.68;24.98;;;2.60;99.90;;;;;;5052260;28;20041;-73
2023/01/26 07:32:35;;;;;;;83.85;18.77;;;2.60;99.90;;;;;;5051806;28;20450;-74
2023/01/26 07:35:01;;;;;;;80.32;17.83;;;2.60;99.90;;;;;;5052356;28;20043;-73
2023/01/26 07:37:27;;;;;;;73.28;19.02;;;2.60;99.90;;;;;;5052285;28;20060;-73
2023/01/26 07:39:53;;;;;;;98.68;19.52;;;2.70;99.90;;;;;;5033889;28;20465;-73
2023/01/26 07:42:19;;;;;;;90.50;18.80;;;2.80;99.90;;;;;;5052262;28;20112;-74
2023/01/26 07:44:45;;;;;;;66.03;15.82;;;2.80;99.90;;;;;;5051957;28;20060;-73
2023/01/26 07:47:10;;;;;;;61.22;13.95;;;2.80;99.90;;;;;;5051574;28;20025;-74
2023/01/26 07:49:36;;;;;;;63.78;14.43;;;2.90;99.90;;;;;;5017591;28;20041;-73
2023/01/26 07:52:03;;;;;;;52.47;13.13;;;2.90;99.90;;;;;;5051890;28;20041;-74
2023/01/26 07:54:29;;;;;;;63.00;12.70;;;2.90;99.90;;;;;;5033409;28;20041;-74
2023/01/26 07:56:54;;;;;;;54.08;12.25;;;2.90;99.90;;;;;;5034073;28;20136;-74
2023/01/26 07:59:21;;;;;;;58.72;12.77;;;2.80;99.90;;;;;;5051952;28;20052;-74
2023/01/26 08:01:49;;;;;;;61.65;11.80;;;2.80;99.90;;;;;;5050976;28;20048;-74
2023/01/26 08:04:15;;;;;;;46.17;9.40;;;2.70;99.90;;;;;;5017299;28;20095;-75
2023/01/26 08:06:41;;;;;;;51.45;9.68;;;2.60;99.90;;;;;;5033509;28;20053;-75
2023/01/26 08:09:07;;;;;;;49.50;9.65;;;2.60;99.90;;;;;;5034205;28;20473;-71
2023/01/26 08:11:33;;;;;;;44.67;8.95;;;2.60;99.90;;;;;;5035368;28;20437;-74
2023/01/26 08:13:59;;;;;;;47.47;8.68;;;2.50;99.90;;;;;;5054125;28;20041;-75
2023/01/26 08:16:25;;;;;;;57.92;9.00;;;2.50;99.90;;;;;;5019624;28;20131;-74
2023/01/26 08:18:50;;;;;;;49.83;8.55;;;2.40;99.90;;;;;;5036714;28;20036;-75
2023/01/26 08:21:17;;;;;;;47.45;7.20;;;2.40;99.90;;;;;;5053889;28;20041;-75
2023/01/26 08:23:47;;;;;;;41.67;7.43;;;2.40;99.90;;;;;;5053757;28;20120;-75
2023/01/26 08:26:13;;;;;;;52.88;9.23;;;2.50;99.90;;;;;;5035569;28;20044;-75
2023/01/26 08:28:39;;;;;;;51.42;6.95;;;2.70;99.90;;;;;;5053509;28;20051;-75
2023/01/26 08:31:10;;;;;;;36.97;6.88;;;2.80;99.90;;;;;;5036332;28;20041;-76
2023/01/26 08:33:36;;;;;;;35.85;6.00;;;2.90;99.90;;;;;;5036545;28;20062;-75
2023/01/26 08:36:07;;;;;;;38.35;6.30;;;3.10;99.90;;;;;;5035768;28;20044;-75
2023/01/26 08:38:33;;;;;;;42.88;6.38;;;3.40;99.90;;;;;;5036166;28;20048;-73
2023/01/26 08:41:00;;;;;;;27.02;6.15;;;3.70;99.90;;;;;;5036548;28;20393;-73
2023/01/26 08:43:26;;;;;;;39.88;5.63;;;4.00;99.90;;;;;;5053545;28;20037;-73
2023/01/26 08:45:53;;;;;;;33.08;6.18;;;4.30;99.90;;;;;;5051111;28;20043;-74
2023/01/26 08:48:20;;;;;;;34.30;5.25;;;4.50;99.90;;;;;;5033138;28;20045;-74
2023/01/26 08:50:46;;;;;;;33.28;5.80;;;4.70;99.90;;;;;;5032709;28;20043;-74
2023/01/26 08:53:13;;;;;;;32.15;4.63;;;4.90;99.90;;;;;;5033285;28;20128;-74
2023/01/26 08:55:39;;;;;;;33.53;5.25;;;5.30;99.90;;;;;;5031729;28;20033;-74
2023/01/26 08:58:05;;;;;;;31.90;4.55;;;5.70;99.90;;;;;;5032914;28;20048;-75
2023/01/26 09:00:32;;;;;;;20.70;3.95;;;6.30;99.90;;;;;;5033199;28;20045;-75
2023/01/26 09:02:59;;;;;;;24.58;4.53;;;6.70;99.90;;;;;;5032698;28;20045;-75
2023/01/26 09:05:25;;;;;;;20.48;3.92;;;7.10;99.90;;;;;;5032503;28;20163;-76
2023/01/26 09:07:51;;;;;;;24.60;3.83;;;7.40;99.90;;;;;;5016257;28;20052;-75
2023/01/26 09:10:16;;;;;;;20.90;3.50;;;7.50;99.90;;;;;;5030452;28;20041;-75
2023/01/26 09:12:42;;;;;;;25.10;4.45;;;7.60;99.90;;;;;;5012987;28;20041;-75
2023/01/26 09:15:08;;;;;;;23.67;4.45;;;8.00;99.90;;;;;;5012915;28;20125;-75
2023/01/26 09:17:34;;;;;;;19.38;4.30;;;8.30;99.90;;;;;;5030158;28;20033;-75
2023/01/26 09:20:00;;;;;;;21.85;4.15;;;8.60;99.90;;;;;;5012840;28;20405;-75
2023/01/26 09:22:26;;;;;;;21.08;3.35;;;8.90;99.90;;;;;;5013058;28;20116;-76
2023/01/26 09:24:52;;;;;;;20.10;4.00;;;9.20;99.90;;;;;;5017781;28;20071;-76
2023/01/26 09:27:17;;;;;;;23.80;3.78;;;9.40;99.90;;;;;;5032507;28;20045;-76
2023/01/26 09:29:43;;;;;;;24.13;4.55;;;9.60;99.90;;;;;;5032249;28;20056;-76
2023/01/26 09:32:09;;;;;;;18.67;4.43;;;9.80;99.90;;;;;;5049946;28;20047;-76
2023/01/26 09:34:35;;;;;;;20.10;3.85;;;10.10;99.90;;;;;;5050114;28;20059;-76
2023/01/26 09:37:00;;;;;;;23.27;3.95;;;10.30;99.90;;;;;;5034269;28;20045;-76
2023/01/26 09:39:26;;;;;;;20.20;4.00;;;10.60;99.90;;;;;;5019463;28;20037;-76
2023/01/26 09:42:12;;;;;;;23.63;5.22;;;10.90;99.90;;;;;;5036543;28;20060;-77
2023/01/26 09:44:47;;;;;;;23.33;4.20;;;10.60;99.90;;;;;;5053998;28;20678;-77
2023/01/26 09:47:30;;;;;;;23.23;3.75;;;10.30;99.90;;;;;;5036158;28;20036;-76
2023/01/26 09:50:07;;;;;;;26.13;4.50;;;9.70;99.90;;;;;;5054392;28;20095;-73
2023/01/26 09:52:42;;;;;;;21.08;4.05;;;9.50;99.90;;;;;;5035701;28;20040;-74
2023/01/26 09:55:16;;;;;;;14.95;3.15;;;10.00;99.90;;;;;;5036247;28;20044;-75
2023/01/26 09:57:48;;;;;;;24.52;4.65;;;10.70;99.90;;;;;;5054350;28;20044;-75
2023/01/26 10:00:27;;;;;;;23.25;5.00;;;11.00;99.90;;;;;;5035753;28;20052;-75
2023/01/26 10:03:18;;;;;;;17.40;3.47;;;11.20;99.90;;;;;;5019657;28;20045;-75
2023/01/26 10:05:51;;;;;;;21.23;4.90;;;11.60;99.90;;;;;;5053988;28;20061;-76
2023/01/26 10:08:20;;;;;;;20.23;4.10;;;12.00;99.90;;;;;;5053779;28;20060;-76
2023/01/26 10:10:57;;;;;;;17.00;4.63;;;12.40;99.90;;;;;;5054018;28;20039;-77
2023/01/26 10:13:23;;;;;;;20.10;4.38;;;12.60;99.90;;;;;;5019064;28;20048;-75
2023/01/26 10:16:00;;;;;;;19.23;4.20;;;12.70;99.90;;;;;;5053699;28;20037;-75
2023/01/26 10:18:56;;;;;;;25.27;4.28;;;12.60;99.90;;;;;;5053925;28;20048;-76
2023/01/26 10:21:28;;;;;;;19.20;3.90;;;12.40;99.90;;;;;;5010790;28;20519;-75
2023/01/26 10:23:57;;;;;;;16.50;4.07;;;12.50;99.90;;;;;;5035954;28;20048;-74
2023/01/26 10:26:23;;;;;;;20.43;3.87;;;12.80;99.90;;;;;;5019260;28;20067;-75
2023/01/26 10:28:52;;;;;;;18.67;3.90;;;12.90;99.90;;;;;;5050128;28;20044;-73
2023/01/26 10:31:21;;;;;;;19.42;3.83;;;12.80;99.90;;;;;;5035531;28;20043;-74
2023/01/26 10:33:56;;;;;;;14.82;3.35;;;13.10;99.90;;;;;;5052757;28;20041;-76
2023/01/26 10:36:23;;;;;;;19.73;4.07;;;13.50;99.90;;;;;;5047275;28;20041;-75
2023/01/26 10:38:50;;;;;;;14.20;4.00;;;13.50;99.90;;;;;;5053358;28;20045;-74
2023/01/26 10:41:24;;;;;;;12.00;3.78;;;13.10;99.90;;;;;;5052485;28;20091;-75
2023/01/26 10:44:14;;;;;;;25.20;5.25;;;12.20;99.90;;;;;;5035134;28;20497;-75
2023/01/26 10:46:41;;;;;;;19.40;3.97;;;11.70;99.90;;;;;;5035051;28;20052;-75
2023/01/26 10:49:07;;;;;;;17.08;3.75;;;11.70;99.90;;;;;;5051657;28;20080;-75
2023/01/26 10:51:34;;;;;;;16.75;3.33;;;12.10;99.90;;;;;;5052781;28;20064;-73
2023/01/26 10:54:29;;;;;;;14.30;3.88;;;12.70;99.90;;;;;;5052825;28;20489;-73
2023/01/26 10:57:01;;;;;;;18.20;3.58;;;13.30;99.90;;;;;;5047349;28;20570;-73
2023/01/26 10:59:38;;;;;;;15.15;3.75;;;13.60;99.90;;;;;;5018662;28;20098;-73
2023/01/26 11:02:10;;;;;;;14.50;3.20;;;13.90;99.90;;;;;;5051977;28;20138;-72
2023/01/26 11:04:37;;;;;;;13.82;3.33;;;14.20;99.90;;;;;;5035023;28;20044;-73
2023/01/26 11:07:42;;;;;;;17.27;3.20;;;14.40;99.90;;;;;;5018630;28;20190;-72
2023/01/26 11:10:17;;;;;;;12.43;3.00;;;14.50;99.90;;;;;;5013068;28;20046;-73
2023/01/26 11:12:42;;;;;;;15.55;3.10;;;14.30;99.90;;;;;;5013685;28;20551;-73
2023/01/26 11:15:26;;;;;;;14.63;2.92;;;14.00;99.90;;;;;;5030089;28;20080;-72
2023/01/26 11:18:25;;;;;;;15.98;3.65;;;14.00;99.90;;;;;;5013220;28;20433;-73
2023/01/26 11:21:03;;;;;;;13.63;3.33;;;14.20;99.90;;;;;;5019102;28;20049;-72
2023/01/26 11:24:02;;;;;;;16.40;3.80;;;14.40;99.90;;;;;;4993356;28;20042;-74
2023/01/26 11:26:39;;;;;;;13.23;2.80;;;14.50;99.90;;;;;;4993971;28;20042;-71
2023/01/26 11:29:19;;;;;;;18.65;3.30;;;14.70;99.90;;;;;;4977366;28;20046;-72
2023/01/26 11:31:53;;;;;;;12.15;2.53;;;14.90;99.90;;;;;;4993072;28;20490;-72
2023/01/26 11:34:28;;;;;;;10.23;2.33;;;14.80;99.90;;;;;;4993652;28;20048;-74
2023/01/26 11:37:30;;;;;;;13.13;2.55;;;14.60;99.90;;;;;;4976768;28;20165;-73
2023/01/26 11:39:59;;;;;;;19.55;3.60;;;14.00;99.90;;;;;;5021194;28;20048;-71
2023/01/26 11:42:49;;;;;;;10.90;2.42;;;13.20;99.90;;;;;;5014378;28;20048;-75
2023/01/26 11:45:18;;;;;;;;;;;13.10;99.90;;;;;;5014451;28;20385;-75
2023/01/26 11:48:01;;;;;;;9.02;1.60;;;12.60;99.90;;;;;;5051710;28;19924;-76
2023/01/26 11:50:39;;;;;;;10.27;1.75;;;11.80;99.90;;;;;;5051885;28;20369;-72
2023/01/26 11:53:16;;;;;;;7.45;1.88;;;11.10;99.90;;;;;;5016861;28;20143;-73
2023/01/26 11:55:41;;;;;;;9.43;2.00;;;10.40;99.90;;;;;;5033933;28;20059;-74
2023/01/26 11:58:13;;;;;;;10.48;2.17;;;9.90;99.90;;;;;;5033317;28;20505;-75
2023/01/26 12:00:52;;;;;;;14.93;2.10;;;9.70;99.90;;;;;;5016429;28;20045;-71
2023/01/26 12:03:23;;;;;;;8.02;2.08;;;9.60;99.90;;;;;;5033725;28;20044;-71
2023/01/26 12:05:54;;;;;;;9.00;1.50;;;9.50;99.90;;;;;;5032803;28;20409;-71
2023/01/26 12:08:40;;;;;;;12.25;1.98;;;9.50;99.90;;;;;;5017360;28;20136;-71
2023/01/26 12:11:21;;;;;;;8.20;1.50;;;9.40;99.90;;;;;;5017385;28;20420;-72
2023/01/26 12:13:49;;;;;;;10.90;1.70;;;9.80;99.90;;;;;;5050687;28;20048;-72
2023/01/26 12:16:33;;;;;;;12.20;2.45;;;10.30;99.90;;;;;;5033480;28;20098;-71
2023/01/26 12:19:36;;;;;;;7.72;1.90;;;10.70;99.90;;;;;;5032699;28;20076;-71
2023/01/26 12:22:12;;;;;;;9.50;2.42;;;11.20;99.90;;;;;;5033446;28;20037;-75
2023/01/26 12:24:46;;;;;;;16.50;2.33;;;12.10;99.90;;;;;;5016861;28;20074;-71
2023/01/26 12:27:21;;;;;;;10.55;2.72;;;12.20;99.90;;;;;;5016227;28;20093;-71
2023/01/26 12:29:53;;;;;;;16.48;2.70;;;11.90;99.90;;;;;;5033141;28;20057;-72
2023/01/26 12:32:21;;;;;;;8.75;2.05;;;11.50;99.90;;;;;;5016753;28;20127;-75
2023/01/26 12:34:47;;;;;;;12.23;2.65;;;11.00;99.90;;;;;;5016269;28;20041;-72
2023/01/26 12:37:34;;;;;;;12.70;2.67;;;10.60;99.90;;;;;;5033414;28;20044;-71
2023/01/26 12:40:08;;;;;;;14.13;2.22;;;10.30;99.90;;;;;;5050337;28;20037;-75
2023/01/26 12:43:13;;;;;;;15.40;2.35;;;10.00;99.90;;;;;;5030441;28;20056;-74
2023/01/26 12:45:44;;;;;;;13.70;2.42;;;9.80;99.90;;;;;;5042822;28;20071;-75
2023/01/26 12:48:21;;;;;;;11.60;2.38;;;9.60;99.90;;;;;;5015547;28;20045;-74
2023/01/26 12:50:56;;;;;;;14.23;2.67;;;9.50;99.90;;;;;;5050867;28;20048;-74
2023/01/26 12:53:31;;;;;;;10.32;2.67;;;9.40;99.90;;;;;;5032776;28;20548;-74
2023/01/26 12:56:19;;;;;;;10.00;2.30;;;9.30;99.90;;;;;;5050061;28;20077;-76
2023/01/26 12:58:49;;;;;;;11.23;2.30;;;9.30;99.90;;;;;;5032757;28;20072;-73
2023/01/26 13:01:18;;;;;;;10.02;2.63;;;9.20;99.90;;;;;;5032258;28;20044;-74
2023/01/26 13:03:49;;;;;;;12.30;2.35;;;9.20;99.90;;;;;;5050557;28;20268;-73
2023/01/26 13:06:15;;;;;;;19.98;2.75;;;9.30;99.90;;;;;;5050261;28;20065;-73
2023/01/26 13:08:53;;;;;;;10.50;2.50;;;9.30;99.90;;;;;;5049696;28;20044;-74
2023/01/26 13:11:48;;;;;;;12.45;1.92;;;9.30;99.90;;;;;;5049739;28;20112;-73
2023/01/26 13:14:26;;;;;;;8.02;1.83;;;9.30;99.90;;;;;;5032721;28;20057;-73
2023/01/26 13:16:52;;;;;;;12.45;3.10;;;9.20;99.90;;;;;;5032118;28;20032;-73
2023/01/26 13:19:50;;;;;;;13.70;1.98;;;9.10;99.90;;;;;;5050260;28;20041;-74
2023/01/26 13:22:25;;;;;;;10.18;1.75;;;9.00;99.90;;;;;;5049671;28;20531;-74
2023/01/26 13:25:32;;;;;;;17.70;2.33;;;8.90;99.90;;;;;;5050285;28;20489;-78
2023/01/26 13:28:10;;;;;;;18.08;2.92;;;8.80;99.90;;;;;;4991453;28;20128;-78
2023/01/26 13:30:43;;;;;;;14.75;3.38;;;8.70;99.90;;;;;;4991165;28;20061;-73
2023/01/26 13:33:12;;;;;;;15.57;2.50;;;8.60;99.90;;;;;;4991897;28;20441;-74